Time;durP1;ratioP1;P1;durP2;ratioP2;P2;SDS_P1;SDS_P2;PMS_P1;PMS_P2;Temp;Humidity;BMP_temperature;BMP_pressure;BME280_temperature;BME280_humidity;BME280_pressure;Samples;Min_cycle;Max_cycle;Signal;HPM_P1;HPM_P2
2023/03/07 00:02:09;;;;;;;18.42;3.50;;;;;;;;;;4916805;29;20126;-67
2023/03/07 00:04:35;;;;;;;18.48;2.72;;;;;;;;;;4916372;29;20036;-67
2023/03/07 00:07:01;;;;;;;23.67;3.15;;;;;;;;;;4914750;29;20048;-68
2023/03/07 00:09:27;;;;;;;21.92;2.60;;;;;;;;;;4915294;29;20059;-67
2023/03/07 00:11:54;;;;;;;18.98;2.53;;;;;;;;;;4899141;29;20063;-67
2023/03/07 00:14:20;;;;;;;19.48;3.28;;;;;;;;;;4919592;29;20062;-67
2023/03/07 00:16:49;;;;;;;19.73;3.53;;;;;;;;;;4921590;29;20040;-68
2023/03/07 00:19:17;;;;;;;21.83;3.53;;;;;;;;;;4922603;29;20085;-68
2023/03/07 00:21:44;;;;;;;15.80;3.00;;;;;;;;;;4908447;29;20092;-68
2023/03/07 00:24:10;;;;;;;24.02;2.78;;;;;;;;;;4916589;29;20058;-67
2023/03/07 00:26:38;;;;;;;20.33;3.00;;;;;;;;;;4920801;29;20403;-67
2023/03/07 00:29:06;;;;;;;23.70;2.90;;;;;;;;;;4918519;29;20053;-67
2023/03/07 00:31:32;;;;;;;16.33;2.67;;;;;;;;;;4900517;29;20464;-67
2023/03/07 00:33:58;;;;;;;25.70;2.97;;;;;;;;;;4884513;29;20056;-68
2023/03/07 00:36:26;;;;;;;11.10;2.13;;;;;;;;;;4900825;29;20044;-67
2023/03/07 00:38:52;;;;;;;20.60;2.50;;;;;;;;;;4882512;29;20059;-67
2023/03/07 00:41:20;;;;;;;14.85;2.13;;;;;;;;;;4893863;29;20048;-68
2023/03/07 00:43:46;;;;;;;17.88;3.00;;;;;;;;;;4900700;29;20111;-68
2023/03/07 00:46:16;;;;;;;11.68;2.30;;;;;;;;;;4900364;29;20464;-67
2023/03/07 00:48:42;;;;;;;17.40;2.70;;;;;;;;;;4900522;29;20048;-68
2023/03/07 00:51:10;;;;;;;27.98;2.45;;;;;;;;;;4900903;29;20225;-68
2023/03/07 00:53:36;;;;;;;20.02;2.88;;;;;;;;;;4897876;29;20044;-67
2023/03/07 00:56:05;;;;;;;20.33;2.50;;;;;;;;;;4902465;29;21311;-67
2023/03/07 00:58:32;;;;;;;17.17;3.05;;;;;;;;;;4901307;29;20505;-68
2023/03/07 01:00:59;;;;;;;19.48;2.30;;;;;;;;;;4899633;29;20054;-67
2023/03/07 01:03:25;;;;;;;12.63;1.63;;;;;;;;;;4902203;29;20531;-68
2023/03/07 01:05:52;;;;;;;15.55;2.28;;;;;;;;;;4900456;29;20449;-67
2023/03/07 01:08:19;;;;;;;14.15;3.70;;;;;;;;;;4901291;29;20067;-68
2023/03/07 01:10:47;;;;;;;14.00;2.72;;;;;;;;;;4886674;29;20051;-68
2023/03/07 01:13:13;;;;;;;15.45;2.53;;;;;;;;;;4904843;29;20044;-67
2023/03/07 01:15:40;;;;;;;16.48;1.88;;;;;;;;;;4898483;29;20157;-68
2023/03/07 01:18:07;;;;;;;10.65;1.75;;;;;;;;;;4901709;29;20138;-68
2023/03/07 01:20:34;;;;;;;15.60;2.00;;;;;;;;;;4882114;29;20048;-68
2023/03/07 01:23:00;;;;;;;9.98;1.50;;;;;;;;;;4881879;29;20155;-68
2023/03/07 01:25:26;;;;;;;20.88;2.67;;;;;;;;;;4900943;29;20119;-68
2023/03/07 01:27:54;;;;;;;13.35;1.67;;;;;;;;;;4901109;29;20341;-68
2023/03/07 01:30:21;;;;;;;20.38;2.13;;;;;;;;;;4907722;29;20056;-68
2023/03/07 01:32:48;;;;;;;11.20;2.17;;;;;;;;;;4919733;29;20055;-68
2023/03/07 01:35:15;;;;;;;18.00;2.10;;;;;;;;;;4918197;29;20614;-69
2023/03/07 01:37:41;;;;;;;10.68;1.48;;;;;;;;;;4901555;29;20064;-69
2023/03/07 01:40:07;;;;;;;17.95;2.28;;;;;;;;;;4904294;29;20506;-69
2023/03/07 01:42:33;;;;;;;19.35;2.00;;;;;;;;;;4916460;29;21100;-69
2023/03/07 01:45:02;;;;;;;14.55;2.10;;;;;;;;;;4917863;29;20094;-69
2023/03/07 01:47:29;;;;;;;15.07;1.88;;;;;;;;;;4919551;29;20427;-69
2023/03/07 01:49:56;;;;;;;11.80;1.80;;;;;;;;;;4918064;29;20059;-69
2023/03/07 01:52:27;;;;;;;15.88;2.20;;;;;;;;;;4899358;29;21521;-69
2023/03/07 01:54:58;;;;;;;14.18;2.35;;;;;;;;;;4919006;29;20100;-69
2023/03/07 01:57:27;;;;;;;11.50;1.73;;;;;;;;;;4918266;29;20547;-69
2023/03/07 01:59:55;;;;;;;13.90;1.80;;;;;;;;;;4917561;29;20051;-69
2023/03/07 02:02:21;;;;;;;12.68;1.77;;;;;;;;;;4905370;29;20059;-69
2023/03/07 02:04:51;;;;;;;14.63;1.83;;;;;;;;;;4903410;29;20066;-69
2023/03/07 02:07:19;;;;;;;11.65;1.75;;;;;;;;;;4916936;29;20138;-69
2023/03/07 02:09:47;;;;;;;26.35;2.67;;;;;;;;;;4917590;29;20050;-69
2023/03/07 02:12:13;;;;;;;14.07;2.03;;;;;;;;;;4918679;29;20688;-70
2023/03/07 02:14:42;;;;;;;23.83;3.53;;;;;;;;;;4922783;29;20048;-69
2023/03/07 02:17:08;;;;;;;16.00;2.10;;;;;;;;;;4899061;29;20036;-68
2023/03/07 02:19:43;;;;;;;31.48;2.58;;;;;;;;;;4916806;29;20126;-68
2023/03/07 02:22:12;;;;;;;16.50;1.67;;;;;;;;;;4918513;29;20051;-67
2023/03/07 02:24:51;;;;;;;17.88;2.17;;;;;;;;;;4918632;29;20404;-68
2023/03/07 02:27:17;;;;;;;14.90;2.13;;;;;;;;;;4918357;29;20106;-68
2023/03/07 02:29:43;;;;;;;15.63;2.33;;;;;;;;;;4917611;29;20048;-67
2023/03/07 02:32:10;;;;;;;10.75;1.67;;;;;;;;;;4917962;29;20146;-68
2023/03/07 02:34:36;;;;;;;13.15;1.60;;;;;;;;;;4920440;29;20040;-68
2023/03/07 02:37:06;;;;;;;13.07;1.75;;;;;;;;;;4919624;29;20138;-67
2023/03/07 02:39:32;;;;;;;10.43;1.70;;;;;;;;;;4914971;29;20058;-67
2023/03/07 02:42:01;;;;;;;11.07;1.75;;;;;;;;;;4917733;29;20040;-68
2023/03/07 02:44:27;;;;;;;9.77;1.73;;;;;;;;;;4918642;29;20441;-68
2023/03/07 02:46:54;;;;;;;15.70;2.38;;;;;;;;;;4916322;29;20052;-68
2023/03/07 02:49:20;;;;;;;12.10;1.33;;;;;;;;;;4916832;29;20039;-68
2023/03/07 02:51:46;;;;;;;11.25;1.42;;;;;;;;;;4905905;29;20122;-68
2023/03/07 02:54:12;;;;;;;10.35;1.77;;;;;;;;;;4917826;29;20129;-68
2023/03/07 02:56:38;;;;;;;13.02;1.27;;;;;;;;;;4918151;29;20051;-68
2023/03/07 02:59:05;;;;;;;12.48;1.80;;;;;;;;;;4916310;29;20419;-68
2023/03/07 03:01:31;;;;;;;11.60;1.88;;;;;;;;;;4917128;29;20044;-68
2023/03/07 03:03:57;;;;;;;12.25;1.55;;;;;;;;;;4901131;29;20047;-68
2023/03/07 03:06:23;;;;;;;14.93;1.40;;;;;;;;;;4885459;29;20440;-68
2023/03/07 03:08:50;;;;;;;7.78;1.58;;;;;;;;;;4916728;29;20056;-68
2023/03/07 03:11:16;;;;;;;10.63;1.60;;;;;;;;;;4902298;29;20046;-68
2023/03/07 03:13:42;;;;;;;12.98;1.98;;;;;;;;;;4915989;29;20365;-68
2023/03/07 03:16:08;;;;;;;13.43;1.98;;;;;;;;;;4915737;29;20110;-68
2023/03/07 03:18:34;;;;;;;7.13;1.48;;;;;;;;;;4917769;29;20086;-68
2023/03/07 03:21:06;;;;;;;8.98;1.27;;;;;;;;;;4900780;29;20122;-68
2023/03/07 03:23:32;;;;;;;15.68;1.58;;;;;;;;;;4917486;29;21442;-68
2023/03/07 03:26:00;;;;;;;9.52;1.63;;;;;;;;;;4919211;29;20051;-68
2023/03/07 03:28:26;;;;;;;6.78;1.15;;;;;;;;;;4901959;29;20274;-68
2023/03/07 03:30:58;;;;;;;12.02;1.77;;;;;;;;;;4917907;29;20055;-68
2023/03/07 03:33:24;;;;;;;13.43;1.60;;;;;;;;;;4918714;29;20055;-68
2023/03/07 03:35:51;;;;;;;15.63;1.45;;;;;;;;;;4900473;29;20048;-68
2023/03/07 03:38:17;;;;;;;9.60;1.42;;;;;;;;;;4904571;29;20051;-68
2023/03/07 03:40:43;;;;;;;15.95;1.83;;;;;;;;;;4902011;29;20059;-68
2023/03/07 03:43:10;;;;;;;17.90;2.20;;;;;;;;;;4917652;29;20727;-68
2023/03/07 03:45:36;;;;;;;9.80;1.60;;;;;;;;;;4920628;29;20040;-68
2023/03/07 03:48:02;;;;;;;11.35;1.58;;;;;;;;;;4916498;29;20094;-68
2023/03/07 03:50:28;;;;;;;14.25;2.22;;;;;;;;;;4920643;29;20432;-68
2023/03/07 03:52:55;;;;;;;11.07;1.60;;;;;;;;;;4918986;29;20074;-68
2023/03/07 03:55:21;;;;;;;18.30;1.92;;;;;;;;;;4891052;29;20154;-68
2023/03/07 03:57:47;;;;;;;11.55;1.77;;;;;;;;;;4920352;29;20846;-68
2023/03/07 04:00:14;;;;;;;15.18;2.28;;;;;;;;;;4906691;29;20055;-68
2023/03/07 04:02:40;;;;;;;16.95;2.05;;;;;;;;;;4921277;29;20620;-68
2023/03/07 04:05:07;;;;;;;12.15;1.85;;;;;;;;;;4905594;29;21326;-68
2023/03/07 04:07:33;;;;;;;16.42;2.38;;;;;;;;;;4920514;29;20067;-68
2023/03/07 04:09:59;;;;;;;20.35;2.08;;;;;;;;;;4918699;29;20100;-68
2023/03/07 04:12:26;;;;;;;12.27;2.10;;;;;;;;;;4921038;29;20583;-68
2023/03/07 04:14:52;;;;;;;20.88;3.58;;;;;;;;;;4923212;29;20086;-69
2023/03/07 04:17:18;;;;;;;15.57;2.00;;;;;;;;;;4918783;29;20067;-68
2023/03/07 04:19:44;;;;;;;21.70;2.78;;;;;;;;;;4918780;29;20519;-68
2023/03/07 04:22:10;;;;;;;15.63;2.03;;;;;;;;;;4920975;29;20467;-68
2023/03/07 04:24:37;;;;;;;12.85;1.65;;;;;;;;;;4919884;29;20044;-68
2023/03/07 04:27:03;;;;;;;12.45;1.88;;;;;;;;;;4918959;29;20047;-68
2023/03/07 04:29:30;;;;;;;11.75;1.83;;;;;;;;;;4886420;29;20048;-68
2023/03/07 04:31:56;;;;;;;10.15;1.60;;;;;;;;;;4900871;29;20063;-68
2023/03/07 04:34:22;;;;;;;20.58;2.10;;;;;;;;;;4904445;29;20067;-68
2023/03/07 04:36:48;;;;;;;8.23;1.77;;;;;;;;;;4920041;29;20499;-68
2023/03/07 04:39:15;;;;;;;12.57;1.73;;;;;;;;;;4918908;29;20054;-68
2023/03/07 04:41:41;;;;;;;12.10;2.20;;;;;;;;;;4918187;29;20410;-68
2023/03/07 04:44:07;;;;;;;15.07;2.42;;;;;;;;;;4918866;29;20044;-68
2023/03/07 04:46:33;;;;;;;15.40;2.17;;;;;;;;;;4917228;29;20455;-68
2023/03/07 04:48:59;;;;;;;18.30;2.53;;;;;;;;;;4921137;29;20050;-68
2023/03/07 04:51:26;;;;;;;17.92;2.70;;;;;;;;;;4920192;29;20044;-67
2023/03/07 04:53:52;;;;;;;14.50;1.90;;;;;;;;;;4919133;29;20144;-68
2023/03/07 04:56:18;;;;;;;13.82;2.78;;;;;;;;;;4920922;29;20046;-68
2023/03/07 04:58:44;;;;;;;10.93;2.25;;;;;;;;;;4918630;29;20040;-68
2023/03/07 05:01:11;;;;;;;20.20;2.80;;;;;;;;;;4916916;29;20043;-68
2023/03/07 05:03:37;;;;;;;15.85;2.30;;;;;;;;;;4902395;29;20063;-68
2023/03/07 05:06:05;;;;;;;14.00;2.50;;;;;;;;;;4920296;29;20651;-68
2023/03/07 05:08:31;;;;;;;15.60;2.05;;;;;;;;;;4900819;29;20094;-68
2023/03/07 05:10:57;;;;;;;13.63;2.13;;;;;;;;;;4903558;29;20047;-68
2023/03/07 05:13:24;;;;;;;12.80;2.28;;;;;;;;;;4906850;29;20059;-68
2023/03/07 05:15:51;;;;;;;9.15;1.70;;;;;;;;;;4898374;29;20040;-68
2023/03/07 05:18:17;;;;;;;12.32;1.45;;;;;;;;;;4897238;29;20123;-68
2023/03/07 05:20:44;;;;;;;7.70;1.48;;;;;;;;;;4901628;29;20761;-68
2023/03/07 05:23:10;;;;;;;13.90;1.35;;;;;;;;;;4919144;29;20506;-68
2023/03/07 05:25:36;;;;;;;10.50;1.27;;;;;;;;;;4919660;29;20094;-68
2023/03/07 05:28:02;;;;;;;6.00;0.88;;;;;;;;;;4918434;29;20059;-68
2023/03/07 05:30:28;;;;;;;9.52;1.88;;;;;;;;;;4919462;29;20118;-67
2023/03/07 05:32:54;;;;;;;13.30;1.40;;;;;;;;;;4917459;29;20059;-68
2023/03/07 05:35:23;;;;;;;15.98;2.80;;;;;;;;;;4904047;29;20078;-68
2023/03/07 05:37:50;;;;;;;15.60;2.03;;;;;;;;;;4917737;29;20047;-68
2023/03/07 05:40:16;;;;;;;10.02;1.67;;;;;;;;;;4919094;29;20058;-67
2023/03/07 05:42:43;;;;;;;9.30;2.35;;;;;;;;;;4902372;29;20522;-67
2023/03/07 05:45:10;;;;;;;11.60;1.23;;;;;;;;;;4918878;29;20039;-68
2023/03/07 05:47:36;;;;;;;10.68;1.70;;;;;;;;;;4919955;29;20051;-68
2023/03/07 05:50:02;;;;;;;11.25;1.40;;;;;;;;;;4917016;29;20055;-68
2023/03/07 05:52:28;;;;;;;9.68;1.73;;;;;;;;;;4918900;29;20044;-68
2023/03/07 05:54:55;;;;;;;12.75;1.35;;;;;;;;;;4918401;29;20352;-67
2023/03/07 05:57:22;;;;;;;16.30;2.40;;;;;;;;;;4916481;29;20178;-68
2023/03/07 05:59:48;;;;;;;8.25;1.98;;;;;;;;;;4919845;29;20036;-68
2023/03/07 06:02:14;;;;;;;13.55;1.67;;;;;;;;;;4904987;29;20754;-68
2023/03/07 06:04:40;;;;;;;12.65;1.48;;;;;;;;;;4918193;29;20358;-69
2023/03/07 06:07:07;;;;;;;15.90;1.63;;;;;;;;;;4919815;29;20051;-69
2023/03/07 06:09:33;;;;;;;7.47;1.02;;;;;;;;;;4905878;29;20058;-70
2023/03/07 06:11:59;;;;;;;10.73;1.38;;;;;;;;;;4904036;29;20122;-69
2023/03/07 06:14:26;;;;;;;5.25;1.00;;;;;;;;;;4905975;29;20042;-69
2023/03/07 06:16:52;;;;;;;6.45;0.82;;;;;;;;;;4907438;29;20059;-69
2023/03/07 06:19:18;;;;;;;10.57;2.83;;;;;;;;;;4922524;29;20055;-68
2023/03/07 06:21:44;;;;;;;6.65;1.05;;;;;;;;;;4924143;29;20839;-68
2023/03/07 06:24:10;;;;;;;4.43;0.82;;;;;;;;;;4922732;29;20044;-71
2023/03/07 06:26:36;;;;;;;10.77;1.30;;;;;;;;;;4922428;29;20046;-70
2023/03/07 06:29:03;;;;;;;10.38;1.70;;;;;;;;;;4922319;29;20055;-70
2023/03/07 06:31:29;;;;;;;12.38;1.50;;;;;;;;;;4924645;29;20056;-70
2023/03/07 06:33:55;;;;;;;7.28;1.38;;;;;;;;;;4920661;29;20119;-70
2023/03/07 06:36:22;;;;;;;8.35;1.35;;;;;;;;;;4919784;29;20059;-70
2023/03/07 06:38:48;;;;;;;10.88;1.45;;;;;;;;;;4923793;29;20375;-70
2023/03/07 06:41:14;;;;;;;10.27;1.38;;;;;;;;;;4925168;29;20484;-70
2023/03/07 06:43:40;;;;;;;8.07;1.15;;;;;;;;;;4925670;29;20048;-70
2023/03/07 06:46:07;;;;;;;10.85;1.92;;;;;;;;;;4927704;29;20054;-70
2023/03/07 06:48:33;;;;;;;6.28;1.15;;;;;;;;;;4924042;29;20126;-67
2023/03/07 06:51:00;;;;;;;8.65;1.13;;;;;;;;;;4908258;29;20531;-68
2023/03/07 06:53:26;;;;;;;6.03;1.30;;;;;;;;;;4918757;29;20052;-68
2023/03/07 06:55:52;;;;;;;12.00;1.35;;;;;;;;;;4919507;29;20602;-68
2023/03/07 06:58:18;;;;;;;8.23;1.63;;;;;;;;;;4925255;29;20047;-67
2023/03/07 07:00:45;;;;;;;10.55;1.40;;;;;;;;;;4921705;29;20097;-67
2023/03/07 07:03:13;;;;;;;16.55;2.13;;;;;;;;;;4925678;29;20039;-69
2023/03/07 07:05:39;;;;;;;12.70;1.45;;;;;;;;;;4921193;29;20514;-69
2023/03/07 07:08:06;;;;;;;10.98;1.58;;;;;;;;;;4902268;29;20083;-67
2023/03/07 07:10:32;;;;;;;9.30;1.13;;;;;;;;;;4925282;29;20423;-68
2023/03/07 07:12:58;;;;;;;6.80;1.90;;;;;;;;;;4923918;29;20118;-68
2023/03/07 07:15:24;;;;;;;11.32;1.40;;;;;;;;;;4926017;29;20387;-68
2023/03/07 07:17:51;;;;;;;10.90;1.60;;;;;;;;;;4920938;29;20048;-68
2023/03/07 07:20:17;;;;;;;5.18;1.33;;;;;;;;;;4924450;29;20387;-68
2023/03/07 07:22:43;;;;;;;6.80;1.70;;;;;;;;;;4927985;29;20380;-68
2023/03/07 07:25:10;;;;;;;12.10;1.10;;;;;;;;;;4931771;29;20036;-68
2023/03/07 07:27:36;;;;;;;6.90;1.15;;;;;;;;;;4927343;29;20044;-68
2023/03/07 07:30:03;;;;;;;11.95;1.10;;;;;;;;;;4930939;29;20070;-68
2023/03/07 07:32:30;;;;;;;9.27;1.73;;;;;;;;;;4929216;29;20401;-68
2023/03/07 07:34:56;;;;;;;5.22;0.93;;;;;;;;;;4930841;29;20047;-68
2023/03/07 07:37:22;;;;;;;6.28;1.60;;;;;;;;;;4929700;29;20043;-68
2023/03/07 07:39:49;;;;;;;10.85;1.50;;;;;;;;;;4931528;29;20073;-68
2023/03/07 07:42:15;;;;;;;5.55;0.80;;;;;;;;;;4920651;29;20051;-68
2023/03/07 07:44:42;;;;;;;5.32;1.13;;;;;;;;;;4910086;29;20531;-68
2023/03/07 07:47:08;;;;;;;11.52;2.67;;;;;;;;;;4926788;29;20067;-68
2023/03/07 07:49:35;;;;;;;10.60;1.83;;;;;;;;;;4928685;29;20510;-68
2023/03/07 07:52:01;;;;;;;7.38;1.92;;;;;;;;;;4927862;29;20048;-68
2023/03/07 07:54:28;;;;;;;8.43;1.33;;;;;;;;;;4928953;29;20151;-70
2023/03/07 07:56:54;;;;;;;8.38;1.15;;;;;;;;;;4918661;29;20480;-69
2023/03/07 07:59:20;;;;;;;12.18;1.38;;;;;;;;;;4908959;29;21928;-69
2023/03/07 08:01:46;;;;;;;7.47;1.00;;;;;;;;;;4926099;29;20048;-69
2023/03/07 08:04:12;;;;;;;7.30;1.60;;;;;;;;;;4928492;29;20067;-69
2023/03/07 08:06:39;;;;;;;5.43;1.50;;;;;;;;;;4929448;29;20051;-70
2023/03/07 08:09:05;;;;;;;8.68;1.67;;;;;;;;;;4927126;29;20122;-69
2023/03/07 08:11:31;;;;;;;13.93;2.55;;;;;;;;;;4934483;29;20130;-69
2023/03/07 08:13:57;;;;;;;10.05;2.00;;;;;;;;;;4908889;29;20146;-69
2023/03/07 08:16:24;;;;;;;11.85;1.58;;;;;;;;;;4932797;29;20052;-69
2023/03/07 08:18:52;;;;;;;10.80;1.75;;;;;;;;;;4929322;29;20048;-69
2023/03/07 08:21:19;;;;;;;13.55;2.08;;;;;;;;;;4930292;29;20039;-69
2023/03/07 08:23:45;;;;;;;7.22;1.33;;;;;;;;;;4909186;29;21159;-69
2023/03/07 08:26:12;;;;;;;7.57;1.17;;;;;;;;;;4923895;29;20124;-70
2023/03/07 08:28:38;;;;;;;10.70;1.13;;;;;;;;;;4911522;29;20059;-70
2023/03/07 08:31:06;;;;;;;8.63;0.90;;;;;;;;;;4910722;29;20434;-70
2023/03/07 08:33:33;;;;;;;5.25;0.90;;;;;;;;;;4892799;29;20436;-69
2023/03/07 08:35:59;;;;;;;8.07;1.50;;;;;;;;;;4907998;29;20054;-69
2023/03/07 08:38:25;;;;;;;13.73;2.13;;;;;;;;;;4909334;29;20051;-69
2023/03/07 08:40:51;;;;;;;9.68;1.65;;;;;;;;;;4910884;29;20436;-69
2023/03/07 08:43:18;;;;;;;2.85;0.90;;;;;;;;;;4905025;29;20044;-69
2023/03/07 08:45:44;;;;;;;7.88;1.52;;;;;;;;;;4904746;29;20115;-69
2023/03/07 08:48:10;;;;;;;6.85;1.30;;;;;;;;;;4908904;29;20040;-69
2023/03/07 08:50:38;;;;;;;12.00;0.98;;;;;;;;;;4906018;29;20111;-69
2023/03/07 08:53:04;;;;;;;6.25;1.45;;;;;;;;;;4907928;29;20052;-69
2023/03/07 08:55:34;;;;;;;7.28;1.17;;;;;;;;;;4904702;29;20400;-69
2023/03/07 08:58:00;;;;;;;12.55;1.95;;;;;;;;;;4893897;29;20052;-69
2023/03/07 09:00:26;;;;;;;14.27;1.90;;;;;;;;;;4891900;29;20037;-69
2023/03/07 09:02:53;;;;;;;12.38;1.50;;;;;;;;;;4908902;29;20051;-69
2023/03/07 09:05:19;;;;;;;10.25;1.50;;;;;;;;;;4908593;29;20056;-69
2023/03/07 09:07:45;;;;;;;6.55;1.13;;;;;;;;;;4909605;29;20055;-69
2023/03/07 09:10:11;;;;;;;5.63;1.55;;;;;;;;;;4905937;29;20127;-69
2023/03/07 09:12:38;;;;;;;8.02;1.20;;;;;;;;;;4906840;29;20472;-69
2023/03/07 09:15:04;;;;;;;11.13;2.13;;;;;;;;;;4886692;29;20191;-69
2023/03/07 09:17:30;;;;;;;9.50;1.95;;;;;;;;;;4900441;29;20064;-69
2023/03/07 09:19:56;;;;;;;14.07;2.15;;;;;;;;;;4905600;29;20408;-69
2023/03/07 09:22:23;;;;;;;12.77;1.75;;;;;;;;;;4905179;29;20603;-69
2023/03/07 09:24:49;;;;;;;12.70;1.98;;;;;;;;;;4889286;29;20055;-70
2023/03/07 09:27:15;;;;;;;8.38;1.48;;;;;;;;;;4892533;29;20385;-69
2023/03/07 09:29:41;;;;;;;9.13;1.70;;;;;;;;;;4898894;29;20107;-67
2023/03/07 09:32:07;;;;;;;9.27;1.55;;;;;;;;;;4927979;29;20067;-67
2023/03/07 09:34:34;;;;;;;8.60;1.65;;;;;;;;;;4943444;28;20044;-70
2023/03/07 09:37:00;;;;;;;10.07;1.83;;;;;;;;;;4928835;29;20048;-70
2023/03/07 09:39:26;;;;;;;7.30;1.50;;;;;;;;;;4923338;29;20063;-70
2023/03/07 09:42:04;;;;;;;14.98;1.90;;;;;;;;;;4929753;29;20046;-70
2023/03/07 09:44:41;;;;;;;6.30;1.50;;;;;;;;;;4922008;29;20404;-69
2023/03/07 09:47:17;;;;;;;11.43;2.00;;;;;;;;;;4918686;29;20036;-69
2023/03/07 09:49:45;;;;;;;14.40;3.13;;;;;;;;;;4923577;29;20138;-68
2023/03/07 09:52:14;;;;;;;8.80;1.65;;;;;;;;;;4924453;29;20056;-68
2023/03/07 09:54:43;;;;;;;10.73;1.92;;;;;;;;;;4927314;29;20407;-68
2023/03/07 09:57:16;;;;;;;12.90;1.75;;;;;;;;;;4927055;29;20039;-68
2023/03/07 09:59:44;;;;;;;8.07;2.63;;;;;;;;;;4926939;29;20363;-69
2023/03/07 10:02:32;;;;;;;13.73;2.88;;;;;;;;;;4921725;29;20050;-68
2023/03/07 10:05:19;;;;;;;16.98;2.30;;;;;;;;;;4926071;29;20495;-68
2023/03/07 10:07:45;;;;;;;11.52;2.35;;;;;;;;;;4925535;29;20182;-67
2023/03/07 10:10:14;;;;;;;12.88;2.10;;;;;;;;;;4925798;29;20036;-68
2023/03/07 10:13:09;;;;;;;11.93;1.65;;;;;;;;;;4928483;29;20048;-70
2023/03/07 10:15:44;;;;;;;9.20;1.55;;;;;;;;;;4922021;29;20082;-69
2023/03/07 10:18:29;;;;;;;6.68;1.92;;;;;;;;;;4922553;29;20118;-69
2023/03/07 10:21:01;;;;;;;7.13;1.60;;;;;;;;;;4926634;29;20044;-68
2023/03/07 10:23:28;;;;;;;6.50;1.40;;;;;;;;;;4925586;29;20043;-68
2023/03/07 10:26:01;;;;;;;12.25;1.60;;;;;;;;;;4919601;29;20144;-68
2023/03/07 10:28:29;;;;;;;5.28;1.48;;;;;;;;;;4924125;29;20047;-69
2023/03/07 10:30:59;;;;;;;8.27;1.45;;;;;;;;;;4924737;29;20055;-68
2023/03/07 10:33:26;;;;;;;10.40;2.40;;;;;;;;;;4922925;29;20052;-69
2023/03/07 10:35:57;;;;;;;6.68;1.80;;;;;;;;;;4926468;29;20055;-69
2023/03/07 10:38:30;;;;;;;10.73;1.48;;;;;;;;;;4925115;29;20087;-69
2023/03/07 10:40:57;;;;;;;9.05;1.45;;;;;;;;;;4927182;29;20048;-69
2023/03/07 10:43:26;;;;;;;19.13;3.30;;;;;;;;;;4927127;29;20058;-68
2023/03/07 10:45:56;;;;;;;9.35;1.50;;;;;;;;;;4926659;29;20084;-68
2023/03/07 10:48:23;;;;;;;12.05;1.70;;;;;;;;;;4927302;29;20403;-69
2023/03/07 10:50:49;;;;;;;10.27;1.52;;;;;;;;;;4928151;29;20110;-68
2023/03/07 10:53:21;;;;;;;12.32;1.90;;;;;;;;;;4921416;29;20384;-68
2023/03/07 10:55:48;;;;;;;7.50;1.63;;;;;;;;;;4926503;29;20179;-69
2023/03/07 10:58:15;;;;;;;10.27;1.50;;;;;;;;;;4925917;29;20046;-68
2023/03/07 11:00:44;;;;;;;15.35;3.15;;;;;;;;;;4927528;29;20582;-69
2023/03/07 11:03:21;;;;;;;12.70;3.47;;;;;;;;;;4927399;29;20047;-69
2023/03/07 11:05:48;;;;;;;11.32;3.03;;;;;;;;;;4928704;29;20059;-69
2023/03/07 11:08:26;;;;;;;14.90;3.20;;;;;;;;;;4925283;29;20403;-69
2023/03/07 11:10:52;;;;;;;14.75;3.65;;;;;;;;;;4926545;29;20055;-69
2023/03/07 11:13:19;;;;;;;11.63;1.75;;;;;;;;;;4921837;29;20056;-69
2023/03/07 11:15:46;;;;;;;8.38;2.05;;;;;;;;;;4918811;29;20412;-69
2023/03/07 11:18:26;;;;;;;12.57;2.35;;;;;;;;;;4923115;29;20179;-69
2023/03/07 11:20:52;;;;;;;6.72;1.48;;;;;;;;;;4925878;29;20079;-69
2023/03/07 11:23:26;;;;;;;8.15;1.55;;;;;;;;;;4926106;29;20488;-69
2023/03/07 11:25:54;;;;;;;9.48;1.50;;;;;;;;;;4926272;29;20044;-69
2023/03/07 11:28:23;;;;;;;7.70;1.30;;;;;;;;;;4931473;29;20075;-69
2023/03/07 11:30:57;;;;;;;14.27;1.40;;;;;;;;;;4906675;29;20078;-75
2023/03/07 11:33:27;;;;;;;8.18;1.23;;;;;;;;;;4903741;29;20492;-68
2023/03/07 11:35:58;;;;;;;7.25;1.38;;;;;;;;;;4905641;29;20044;-68
2023/03/07 11:38:31;;;;;;;9.18;1.30;;;;;;;;;;4906168;29;20543;-68
2023/03/07 11:40:57;;;;;;;9.13;1.45;;;;;;;;;;4890107;29;20409;-68
2023/03/07 11:43:23;;;;;;;12.27;1.55;;;;;;;;;;4907805;29;20196;-68
2023/03/07 11:45:51;;;;;;;11.35;1.67;;;;;;;;;;4904425;29;20188;-68
2023/03/07 11:48:31;;;;;;;6.32;1.38;;;;;;;;;;4891169;29;20051;-68
2023/03/07 11:50:57;;;;;;;8.95;1.80;;;;;;;;;;4906614;29;20076;-68
2023/03/07 11:53:29;;;;;;;11.13;1.85;;;;;;;;;;4885644;29;20131;-68
2023/03/07 11:56:03;;;;;;;9.63;1.42;;;;;;;;;;4889831;29;20052;-68
2023/03/07 11:58:38;;;;;;;7.07;1.30;;;;;;;;;;4905436;29;20052;-68
2023/03/07 12:01:11;;;;;;;10.10;1.58;;;;;;;;;;4904287;29;20379;-68
2023/03/07 12:03:43;;;;;;;14.85;1.98;;;;;;;;;;4907221;29;20063;-68
2023/03/07 12:06:15;;;;;;;6.82;1.23;;;;;;;;;;4904898;29;20063;-68
2023/03/07 12:08:44;;;;;;;9.82;1.33;;;;;;;;;;4893129;29;20056;-68
2023/03/07 12:11:14;;;;;;;6.95;1.40;;;;;;;;;;4893237;29;20372;-68
2023/03/07 12:13:59;;;;;;;9.52;1.95;;;;;;;;;;4908930;29;20055;-68
2023/03/07 12:16:44;;;;;;;6.18;1.35;;;;;;;;;;4906908;29;20134;-68
2023/03/07 12:19:14;;;;;;;7.80;1.23;;;;;;;;;;4884502;29;20044;-68
2023/03/07 12:21:52;;;;;;;7.65;1.67;;;;;;;;;;4909415;29;20054;-68
2023/03/07 12:24:22;;;;;;;6.07;1.42;;;;;;;;;;4888289;29;20044;-68
2023/03/07 12:27:00;;;;;;;7.85;1.17;;;;;;;;;;4887899;29;20084;-68
2023/03/07 12:29:38;;;;;;;7.70;1.35;;;;;;;;;;4895379;29;20055;-68
2023/03/07 12:32:08;;;;;;;7.03;1.30;;;;;;;;;;4914786;29;20051;-68
2023/03/07 12:34:36;;;;;;;8.90;1.35;;;;;;;;;;4927129;29;20091;-69
2023/03/07 12:37:09;;;;;;;9.75;1.13;;;;;;;;;;4928845;29;20043;-69
2023/03/07 12:39:53;;;;;;;4.78;1.20;;;;;;;;;;4906969;29;20040;-68
2023/03/07 12:42:25;;;;;;;14.45;1.73;;;;;;;;;;4928126;29;20086;-68
2023/03/07 12:44:54;;;;;;;6.93;1.10;;;;;;;;;;4925316;29;20048;-67
2023/03/07 12:47:20;;;;;;;10.73;2.00;;;;;;;;;;4926336;29;20048;-67
2023/03/07 12:50:10;;;;;;;9.70;1.48;;;;;;;;;;4928216;29;20522;-67
2023/03/07 12:52:41;;;;;;;7.63;1.67;;;;;;;;;;4927516;29;20090;-67
2023/03/07 12:55:16;;;;;;;9.75;1.90;;;;;;;;;;4912879;29;20047;-67
2023/03/07 12:57:44;;;;;;;7.57;1.25;;;;;;;;;;4927887;29;20043;-67
2023/03/07 13:00:12;;;;;;;12.52;2.08;;;;;;;;;;4927786;29;20036;-67
2023/03/07 13:02:41;;;;;;;8.65;1.92;;;;;;;;;;4928380;29;20090;-66
2023/03/07 13:05:15;;;;;;;11.75;2.08;;;;;;;;;;4919114;29;20059;-67
2023/03/07 13:07:43;;;;;;;7.45;1.50;;;;;;;;;;4920433;29;20071;-67
2023/03/07 13:10:14;;;;;;;9.15;1.45;;;;;;;;;;4924901;29;20050;-67
2023/03/07 13:12:40;;;;;;;4.88;1.20;;;;;;;;;;4920062;29;20044;-67
2023/03/07 13:15:20;;;;;;;7.03;1.20;;;;;;;;;;4920231;29;20130;-69
2023/03/07 13:17:46;;;;;;;5.82;1.02;;;;;;;;;;4921527;29;20047;-69
2023/03/07 13:20:16;;;;;;;6.00;0.95;;;;;;;;;;4919831;29;20043;-70
2023/03/07 13:22:42;;;;;;;4.57;0.80;;;;;;;;;;4923189;29;20062;-69
2023/03/07 13:25:19;;;;;;;11.15;1.00;;;;;;;;;;4921089;29;20060;-69
2023/03/07 13:27:46;;;;;;;7.40;1.40;;;;;;;;;;4903943;29;20047;-70
2023/03/07 13:30:13;;;;;;;4.70;1.02;;;;;;;;;;4910746;29;20059;-70
2023/03/07 13:32:46;;;;;;;5.70;0.90;;;;;;;;;;4903133;29;20103;-70
2023/03/07 13:35:12;;;;;;;5.18;0.77;;;;;;;;;;4902916;29;20041;-70
2023/03/07 13:37:43;;;;;;;4.30;0.95;;;;;;;;;;4888736;29;21398;-70
2023/03/07 13:40:24;;;;;;;5.97;1.40;;;;;;;;;;4902813;29;20161;-70
2023/03/07 13:42:51;;;;;;;4.63;1.30;;;;;;;;;;4886594;29;20059;-70
2023/03/07 13:45:36;;;;;;;4.15;1.00;;;;;;;;;;4902120;29;20055;-70
2023/03/07 13:48:03;;;;;;;4.93;0.80;;;;;;;;;;4901820;29;20048;-70
2023/03/07 13:50:33;;;;;;;2.55;0.73;;;;;;;;;;4901097;29;20044;-70
2023/03/07 13:53:01;;;;;;;6.63;0.93;;;;;;;;;;4903380;29;20538;-70
2023/03/07 13:55:28;;;;;;;5.60;1.55;;;;;;;;;;4900638;29;20040;-70
2023/03/07 13:57:56;;;;;;;7.22;1.15;;;;;;;;;;4899961;29;20048;-69
2023/03/07 14:00:25;;;;;;;4.47;0.80;;;;;;;;;;4905863;29;20103;-69
2023/03/07 14:02:52;;;;;;;3.03;0.95;;;;;;;;;;4903714;29;20152;-69
2023/03/07 14:05:19;;;;;;;9.45;1.05;;;;;;;;;;4906478;29;20044;-69
2023/03/07 14:07:50;;;;;;;11.45;1.35;;;;;;;;;;4904840;29;20040;-69
2023/03/07 14:10:20;;;;;;;5.53;0.90;;;;;;;;;;4887150;29;20044;-68
2023/03/07 14:12:59;;;;;;;9.80;0.73;;;;;;;;;;4908684;29;20047;-68
2023/03/07 14:15:29;;;;;;;6.85;1.33;;;;;;;;;;4910789;29;20044;-68
2023/03/07 14:18:11;;;;;;;6.10;1.15;;;;;;;;;;4905687;29;20218;-68
2023/03/07 14:20:56;;;;;;;8.25;1.10;;;;;;;;;;4909282;29;20070;-68
2023/03/07 14:23:22;;;;;;;7.03;1.10;;;;;;;;;;4889583;29;20064;-68
2023/03/07 14:25:50;;;;;;;6.72;1.08;;;;;;;;;;4900848;29;20079;-68
2023/03/07 14:28:27;;;;;;;7.03;1.30;;;;;;;;;;4891271;29;20107;-68
2023/03/07 14:30:57;;;;;;;6.05;0.95;;;;;;;;;;4905334;29;20530;-68
2023/03/07 14:33:31;;;;;;;4.25;0.90;;;;;;;;;;4905429;29;20418;-68
2023/03/07 14:35:57;;;;;;;7.40;0.82;;;;;;;;;;4904039;29;20146;-68
2023/03/07 14:38:24;;;;;;;5.22;1.30;;;;;;;;;;4905559;29;20048;-68
2023/03/07 14:41:02;;;;;;;5.72;1.23;;;;;;;;;;4904549;29;20500;-69
2023/03/07 14:43:33;;;;;;;4.40;1.13;;;;;;;;;;4903846;29;20120;-68